sensor_id;sensor_type;location;lat;lon;timestamp;temperature;humidity
48686;DHT22;34485;51.536;3.816;2023-12-28T00:00:05;10.30;99.90
48686;DHT22;34485;51.536;3.816;2023-12-28T00:02:32;10.30;99.90
48686;DHT22;34485;51.536;3.816;2023-12-28T00:04:58;10.30;99.90
48686;DHT22;34485;51.536;3.816;2023-12-28T00:07:24;10.30;99.90
48686;DHT22;34485;51.536;3.816;2023-12-28T00:09:49;10.30;99.90
48686;DHT22;34485;51.536;3.816;2023-12-28T00:12:15;10.30;99.90
48686;DHT22;34485;51.536;3.816;2023-12-28T00:14:41;10.30;99.90
48686;DHT22;34485;51.536;3.816;2023-12-28T00:17:06;10.30;99.90
48686;DHT22;34485;51.536;3.816;2023-12-28T00:19:32;10.30;99.90
48686;DHT22;34485;51.536;3.816;2023-12-28T00:21:58;10.30;99.90
48686;DHT22;34485;51.536;3.816;2023-12-28T00:24:23;10.30;99.90
48686;DHT22;34485;51.536;3.816;2023-12-28T00:26:49;10.30;99.90
48686;DHT22;34485;51.536;3.816;2023-12-28T00:29:15;10.30;99.90
48686;DHT22;34485;51.536;3.816;2023-12-28T00:31:41;10.30;99.90
48686;DHT22;34485;51.536;3.816;2023-12-28T00:34:06;10.30;99.90
48686;DHT22;34485;51.536;3.816;2023-12-28T00:36:32;10.30;99.90
48686;DHT22;34485;51.536;3.816;2023-12-28T00:38:58;10.30;99.90
48686;DHT22;34485;51.536;3.816;2023-12-28T00:41:23;10.30;99.90
48686;DHT22;34485;51.536;3.816;2023-12-28T00:43:49;10.30;99.90
48686;DHT22;34485;51.536;3.816;2023-12-28T00:46:15;10.40;99.90
48686;DHT22;34485;51.536;3.816;2023-12-28T00:48:40;10.40;99.90
48686;DHT22;34485;51.536;3.816;2023-12-28T00:51:06;10.30;99.90
48686;DHT22;34485;51.536;3.816;2023-12-28T00:53:32;10.30;99.90
48686;DHT22;34485;51.536;3.816;2023-12-28T00:55:58;10.30;99.90
48686;DHT22;34485;51.536;3.816;2023-12-28T00:58:24;10.30;99.90
48686;DHT22;34485;51.536;3.816;2023-12-28T01:00:49;10.40;99.90
48686;DHT22;34485;51.536;3.816;2023-12-28T01:03:19;10.40;99.90
48686;DHT22;34485;51.536;3.816;2023-12-28T01:05:44;10.40;99.90
48686;DHT22;34485;51.536;3.816;2023-12-28T01:08:12;10.40;99.90
48686;DHT22;34485;51.536;3.816;2023-12-28T01:10:38;10.30;99.90
48686;DHT22;34485;51.536;3.816;2023-12-28T01:13:04;10.30;99.90
48686;DHT22;34485;51.536;3.816;2023-12-28T01:15:30;10.30;99.90
48686;DHT22;34485;51.536;3.816;2023-12-28T01:17:56;10.40;99.90
48686;DHT22;34485;51.536;3.816;2023-12-28T01:20:21;10.40;99.90
48686;DHT22;34485;51.536;3.816;2023-12-28T01:22:47;10.30;99.90
48686;DHT22;34485;51.536;3.816;2023-12-28T01:25:15;10.30;99.90
48686;DHT22;34485;51.536;3.816;2023-12-28T01:27:40;10.30;99.90
48686;DHT22;34485;51.536;3.816;2023-12-28T01:30:07;10.30;99.90
48686;DHT22;34485;51.536;3.816;2023-12-28T01:32:32;10.30;99.90
48686;DHT22;34485;51.536;3.816;2023-12-28T01:34:58;10.30;99.90
48686;DHT22;34485;51.536;3.816;2023-12-28T01:37:24;10.30;99.90
48686;DHT22;34485;51.536;3.816;2023-12-28T01:39:50;10.30;99.90
48686;DHT22;34485;51.536;3.816;2023-12-28T01:42:15;10.20;99.90
48686;DHT22;34485;51.536;3.816;2023-12-28T01:44:41;10.30;99.90
48686;DHT22;34485;51.536;3.816;2023-12-28T01:47:07;10.30;99.90
48686;DHT22;34485;51.536;3.816;2023-12-28T01:49:34;10.30;99.90
48686;DHT22;34485;51.536;3.816;2023-12-28T01:52:01;10.30;99.90
48686;DHT22;34485;51.536;3.816;2023-12-28T01:54:28;10.30;99.90
48686;DHT22;34485;51.536;3.816;2023-12-28T01:56:54;10.30;99.90
48686;DHT22;34485;51.536;3.816;2023-12-28T01:59:20;10.30;99.90
48686;DHT22;34485;51.536;3.816;2023-12-28T02:01:46;10.30;99.90
48686;DHT22;34485;51.536;3.816;2023-12-28T02:04:12;10.30;99.90
48686;DHT22;34485;51.536;3.816;2023-12-28T02:06:39;10.30;99.90
48686;DHT22;34485;51.536;3.816;2023-12-28T02:09:04;10.20;99.90
48686;DHT22;34485;51.536;3.816;2023-12-28T02:11:30;10.20;99.90
48686;DHT22;34485;51.536;3.816;2023-12-28T02:13:56;10.20;99.90
48686;DHT22;34485;51.536;3.816;2023-12-28T02:16:34;10.20;99.90
48686;DHT22;34485;51.536;3.816;2023-12-28T02:19:13;10.10;99.90
48686;DHT22;34485;51.536;3.816;2023-12-28T02:21:43;10.10;99.90
48686;DHT22;34485;51.536;3.816;2023-12-28T02:24:09;10.20;99.90
48686;DHT22;34485;51.536;3.816;2023-12-28T02:26:35;10.20;99.90
48686;DHT22;34485;51.536;3.816;2023-12-28T02:29:00;10.20;99.90
48686;DHT22;34485;51.536;3.816;2023-12-28T02:31:31;10.20;99.90
48686;DHT22;34485;51.536;3.816;2023-12-28T02:34:02;10.20;99.90
48686;DHT22;34485;51.536;3.816;2023-12-28T02:36:30;10.10;99.90
48686;DHT22;34485;51.536;3.816;2023-12-28T02:38:56;10.10;99.90
48686;DHT22;34485;51.536;3.816;2023-12-28T02:41:24;10.10;99.90
48686;DHT22;34485;51.536;3.816;2023-12-28T02:43:51;10.10;99.90
48686;DHT22;34485;51.536;3.816;2023-12-28T02:46:16;10.10;99.90
48686;DHT22;34485;51.536;3.816;2023-12-28T02:48:43;10.10;99.90
48686;DHT22;34485;51.536;3.816;2023-12-28T02:51:09;10.20;99.90
48686;DHT22;34485;51.536;3.816;2023-12-28T02:53:34;10.20;99.90
48686;DHT22;34485;51.536;3.816;2023-12-28T02:56:00;10.20;99.90
48686;DHT22;34485;51.536;3.816;2023-12-28T02:58:26;10.20;99.90
48686;DHT22;34485;51.536;3.816;2023-12-28T03:00:51;10.10;99.90
48686;DHT22;34485;51.536;3.816;2023-12-28T03:03:17;10.10;99.90
48686;DHT22;34485;51.536;3.816;2023-12-28T03:05:43;10.10;99.90
48686;DHT22;34485;51.536;3.816;2023-12-28T03:08:08;10.10;99.90
48686;DHT22;34485;51.536;3.816;2023-12-28T03:10:34;10.20;99.90
48686;DHT22;34485;51.536;3.816;2023-12-28T03:13:00;10.10;99.90
48686;DHT22;34485;51.536;3.816;2023-12-28T03:15:26;10.10;99.90
48686;DHT22;34485;51.536;3.816;2023-12-28T03:17:52;10.00;99.90
48686;DHT22;34485;51.536;3.816;2023-12-28T03:20:17;10.00;99.90
48686;DHT22;34485;51.536;3.816;2023-12-28T03:22:43;10.00;99.90
48686;DHT22;34485;51.536;3.816;2023-12-28T03:25:08;10.00;99.90
48686;DHT22;34485;51.536;3.816;2023-12-28T03:27:34;10.00;99.90
48686;DHT22;34485;51.536;3.816;2023-12-28T03:30:00;10.00;99.90
48686;DHT22;34485;51.536;3.816;2023-12-28T03:32:26;10.10;99.90
48686;DHT22;34485;51.536;3.816;2023-12-28T03:34:51;10.10;99.90
48686;DHT22;34485;51.536;3.816;2023-12-28T03:37:17;10.20;99.90
48686;DHT22;34485;51.536;3.816;2023-12-28T03:39:43;10.20;99.90
48686;DHT22;34485;51.536;3.816;2023-12-28T03:42:09;10.30;99.90
48686;DHT22;34485;51.536;3.816;2023-12-28T03:44:35;10.30;99.90
48686;DHT22;34485;51.536;3.816;2023-12-28T03:47:00;10.40;99.90
48686;DHT22;34485;51.536;3.816;2023-12-28T03:49:26;10.50;99.90
48686;DHT22;34485;51.536;3.816;2023-12-28T03:51:52;10.50;99.90
48686;DHT22;34485;51.536;3.816;2023-12-28T03:54:18;10.50;99.90
48686;DHT22;34485;51.536;3.816;2023-12-28T03:56:45;10.60;99.90
48686;DHT22;34485;51.536;3.816;2023-12-28T03:59:11;10.60;99.90
48686;DHT22;34485;51.536;3.816;2023-12-28T04:01:37;10.60;99.90
48686;DHT22;34485;51.536;3.816;2023-12-28T04:04:03;10.60;99.90
48686;DHT22;34485;51.536;3.816;2023-12-28T04:06:29;10.60;99.90
48686;DHT22;34485;51.536;3.816;2023-12-28T04:08:55;10.60;99.90
48686;DHT22;34485;51.536;3.816;2023-12-28T04:13:46;10.70;99.90
48686;DHT22;34485;51.536;3.816;2023-12-28T04:16:15;10.70;99.90
48686;DHT22;34485;51.536;3.816;2023-12-28T04:18:42;10.60;99.90
48686;DHT22;34485;51.536;3.816;2023-12-28T04:21:08;10.70;99.90
48686;DHT22;34485;51.536;3.816;2023-12-28T04:23:39;10.70;99.90
48686;DHT22;34485;51.536;3.816;2023-12-28T04:26:05;10.70;99.90
48686;DHT22;34485;51.536;3.816;2023-12-28T04:28:31;10.70;99.90
48686;DHT22;34485;51.536;3.816;2023-12-28T04:30:56;10.70;99.90
48686;DHT22;34485;51.536;3.816;2023-12-28T04:33:22;10.70;99.90
48686;DHT22;34485;51.536;3.816;2023-12-28T04:35:48;10.70;99.90
48686;DHT22;34485;51.536;3.816;2023-12-28T04:38:13;10.80;99.90
48686;DHT22;34485;51.536;3.816;2023-12-28T04:40:40;10.70;99.90
48686;DHT22;34485;51.536;3.816;2023-12-28T04:43:06;10.80;99.90
48686;DHT22;34485;51.536;3.816;2023-12-28T04:45:32;10.80;99.90
48686;DHT22;34485;51.536;3.816;2023-12-28T04:47:58;10.80;99.90
48686;DHT22;34485;51.536;3.816;2023-12-28T04:50:24;10.80;99.90
48686;DHT22;34485;51.536;3.816;2023-12-28T04:52:50;10.70;99.90
48686;DHT22;34485;51.536;3.816;2023-12-28T04:55:15;10.80;99.90
48686;DHT22;34485;51.536;3.816;2023-12-28T04:57:42;10.70;99.90
48686;DHT22;34485;51.536;3.816;2023-12-28T05:02:34;10.70;99.90
48686;DHT22;34485;51.536;3.816;2023-12-28T05:05:00;10.70;99.90
48686;DHT22;34485;51.536;3.816;2023-12-28T05:07:26;10.70;99.90
48686;DHT22;34485;51.536;3.816;2023-12-28T05:09:51;10.70;99.90
48686;DHT22;34485;51.536;3.816;2023-12-28T05:12:17;10.70;99.90
48686;DHT22;34485;51.536;3.816;2023-12-28T05:14:43;10.70;99.90
48686;DHT22;34485;51.536;3.816;2023-12-28T05:17:08;10.70;99.90
48686;DHT22;34485;51.536;3.816;2023-12-28T05:19:34;10.70;99.90
48686;DHT22;34485;51.536;3.816;2023-12-28T05:22:00;10.80;99.90
48686;DHT22;34485;51.536;3.816;2023-12-28T05:24:32;10.70;99.90
48686;DHT22;34485;51.536;3.816;2023-12-28T05:26:58;10.70;99.90
48686;DHT22;34485;51.536;3.816;2023-12-28T05:29:23;10.60;99.90
48686;DHT22;34485;51.536;3.816;2023-12-28T05:31:49;10.60;99.90
48686;DHT22;34485;51.536;3.816;2023-12-28T05:34:15;10.50;99.90
48686;DHT22;34485;51.536;3.816;2023-12-28T05:36:40;10.50;99.90
48686;DHT22;34485;51.536;3.816;2023-12-28T05:39:07;10.50;99.90
48686;DHT22;34485;51.536;3.816;2023-12-28T05:41:35;10.40;99.90
48686;DHT22;34485;51.536;3.816;2023-12-28T05:44:00;10.40;99.90
48686;DHT22;34485;51.536;3.816;2023-12-28T05:46:26;10.40;99.90
48686;DHT22;34485;51.536;3.816;2023-12-28T05:48:52;10.30;99.90
48686;DHT22;34485;51.536;3.816;2023-12-28T05:51:18;10.30;99.90
48686;DHT22;34485;51.536;3.816;2023-12-28T05:53:46;10.30;99.90
48686;DHT22;34485;51.536;3.816;2023-12-28T05:56:12;10.20;99.90
48686;DHT22;34485;51.536;3.816;2023-12-28T05:58:38;10.30;99.90
48686;DHT22;34485;51.536;3.816;2023-12-28T06:01:04;10.30;99.90
48686;DHT22;34485;51.536;3.816;2023-12-28T06:03:33;10.40;99.90
48686;DHT22;34485;51.536;3.816;2023-12-28T06:05:58;10.40;99.90
48686;DHT22;34485;51.536;3.816;2023-12-28T06:08:24;10.50;99.90
48686;DHT22;34485;51.536;3.816;2023-12-28T06:10:50;10.50;99.90
48686;DHT22;34485;51.536;3.816;2023-12-28T06:13:15;10.50;99.90
48686;DHT22;34485;51.536;3.816;2023-12-28T06:15:41;10.50;99.90
48686;DHT22;34485;51.536;3.816;2023-12-28T06:18:07;10.50;99.90
48686;DHT22;34485;51.536;3.816;2023-12-28T06:20:32;10.50;99.90
48686;DHT22;34485;51.536;3.816;2023-12-28T06:22:58;10.50;99.90
48686;DHT22;34485;51.536;3.816;2023-12-28T06:25:24;10.60;99.90
48686;DHT22;34485;51.536;3.816;2023-12-28T06:27:49;10.60;99.90
48686;DHT22;34485;51.536;3.816;2023-12-28T06:30:15;10.60;99.90
48686;DHT22;34485;51.536;3.816;2023-12-28T06:32:41;10.60;99.90
48686;DHT22;34485;51.536;3.816;2023-12-28T06:35:07;10.60;99.90
48686;DHT22;34485;51.536;3.816;2023-12-28T06:37:33;10.60;99.90
48686;DHT22;34485;51.536;3.816;2023-12-28T06:39:58;10.60;99.90
48686;DHT22;34485;51.536;3.816;2023-12-28T06:42:24;10.60;99.90
48686;DHT22;34485;51.536;3.816;2023-12-28T06:44:50;10.60;99.90
48686;DHT22;34485;51.536;3.816;2023-12-28T06:47:15;10.60;99.90
48686;DHT22;34485;51.536;3.816;2023-12-28T06:49:41;10.60;99.90
48686;DHT22;34485;51.536;3.816;2023-12-28T06:52:07;10.60;99.90
48686;DHT22;34485;51.536;3.816;2023-12-28T06:54:32;10.60;99.90
48686;DHT22;34485;51.536;3.816;2023-12-28T06:59:24;10.50;99.90
48686;DHT22;34485;51.536;3.816;2023-12-28T07:01:50;10.50;99.90
48686;DHT22;34485;51.536;3.816;2023-12-28T07:04:16;10.50;99.90
48686;DHT22;34485;51.536;3.816;2023-12-28T07:06:41;10.50;99.90
48686;DHT22;34485;51.536;3.816;2023-12-28T07:09:07;10.50;99.90
48686;DHT22;34485;51.536;3.816;2023-12-28T07:11:33;10.60;99.90
48686;DHT22;34485;51.536;3.816;2023-12-28T07:13:58;10.60;99.90
48686;DHT22;34485;51.536;3.816;2023-12-28T07:16:24;10.60;99.90
48686;DHT22;34485;51.536;3.816;2023-12-28T07:18:50;10.60;99.90
48686;DHT22;34485;51.536;3.816;2023-12-28T07:21:16;10.60;99.90
48686;DHT22;34485;51.536;3.816;2023-12-28T07:23:41;10.60;99.90
48686;DHT22;34485;51.536;3.816;2023-12-28T07:26:07;10.60;99.90
48686;DHT22;34485;51.536;3.816;2023-12-28T07:28:33;10.60;99.90
48686;DHT22;34485;51.536;3.816;2023-12-28T07:30:59;10.50;99.90
48686;DHT22;34485;51.536;3.816;2023-12-28T07:33:25;10.60;99.90
48686;DHT22;34485;51.536;3.816;2023-12-28T07:35:50;10.50;99.90
48686;DHT22;34485;51.536;3.816;2023-12-28T07:38:16;10.50;99.90
48686;DHT22;34485;51.536;3.816;2023-12-28T07:40:42;10.50;99.90
48686;DHT22;34485;51.536;3.816;2023-12-28T07:43:07;10.60;99.90
48686;DHT22;34485;51.536;3.816;2023-12-28T07:45:34;10.60;99.90
48686;DHT22;34485;51.536;3.816;2023-12-28T07:48:00;10.60;99.90
48686;DHT22;34485;51.536;3.816;2023-12-28T07:50:26;10.60;99.90
48686;DHT22;34485;51.536;3.816;2023-12-28T07:52:51;10.60;99.90
48686;DHT22;34485;51.536;3.816;2023-12-28T07:55:17;10.60;99.90
48686;DHT22;34485;51.536;3.816;2023-12-28T07:57:43;10.60;99.90
48686;DHT22;34485;51.536;3.816;2023-12-28T08:00:09;10.60;99.90
48686;DHT22;34485;51.536;3.816;2023-12-28T08:02:35;10.60;99.90
48686;DHT22;34485;51.536;3.816;2023-12-28T08:05:01;10.50;99.90
48686;DHT22;34485;51.536;3.816;2023-12-28T08:07:27;10.60;99.90
48686;DHT22;34485;51.536;3.816;2023-12-28T08:09:52;10.60;99.90
48686;DHT22;34485;51.536;3.816;2023-12-28T08:12:19;10.60;99.90
48686;DHT22;34485;51.536;3.816;2023-12-28T08:14:46;10.60;99.90
48686;DHT22;34485;51.536;3.816;2023-12-28T08:17:12;10.60;99.90
48686;DHT22;34485;51.536;3.816;2023-12-28T08:19:38;10.70;99.90
48686;DHT22;34485;51.536;3.816;2023-12-28T08:22:03;10.70;99.90
48686;DHT22;34485;51.536;3.816;2023-12-28T08:24:29;10.70;99.90
48686;DHT22;34485;51.536;3.816;2023-12-28T08:26:55;10.80;99.90
48686;DHT22;34485;51.536;3.816;2023-12-28T08:29:24;10.80;99.90
48686;DHT22;34485;51.536;3.816;2023-12-28T08:31:50;10.70;99.90
48686;DHT22;34485;51.536;3.816;2023-12-28T08:34:16;10.80;99.90
48686;DHT22;34485;51.536;3.816;2023-12-28T08:36:41;10.80;99.90
48686;DHT22;34485;51.536;3.816;2023-12-28T08:39:07;10.80;99.90
48686;DHT22;34485;51.536;3.816;2023-12-28T08:41:33;10.80;99.90
48686;DHT22;34485;51.536;3.816;2023-12-28T08:43:59;10.70;99.90
48686;DHT22;34485;51.536;3.816;2023-12-28T08:46:25;10.80;99.90
48686;DHT22;34485;51.536;3.816;2023-12-28T08:48:51;10.80;99.90
48686;DHT22;34485;51.536;3.816;2023-12-28T08:51:17;10.80;99.90
48686;DHT22;34485;51.536;3.816;2023-12-28T08:53:42;10.70;99.90
48686;DHT22;34485;51.536;3.816;2023-12-28T08:56:20;10.70;99.90
48686;DHT22;34485;51.536;3.816;2023-12-28T08:58:47;10.70;99.90
48686;DHT22;34485;51.536;3.816;2023-12-28T09:01:20;10.80;99.90
48686;DHT22;34485;51.536;3.816;2023-12-28T09:03:48;10.80;99.90
48686;DHT22;34485;51.536;3.816;2023-12-28T09:06:15;10.80;99.90
48686;DHT22;34485;51.536;3.816;2023-12-28T09:08:42;10.80;99.90
48686;DHT22;34485;51.536;3.816;2023-12-28T09:11:11;10.80;99.90
48686;DHT22;34485;51.536;3.816;2023-12-28T09:13:40;10.80;99.90
48686;DHT22;34485;51.536;3.816;2023-12-28T09:16:10;10.80;99.90
48686;DHT22;34485;51.536;3.816;2023-12-28T09:18:36;10.90;99.90
48686;DHT22;34485;51.536;3.816;2023-12-28T09:21:03;11.00;99.90
48686;DHT22;34485;51.536;3.816;2023-12-28T09:23:31;11.00;99.90
48686;DHT22;34485;51.536;3.816;2023-12-28T09:25:57;11.10;99.90
48686;DHT22;34485;51.536;3.816;2023-12-28T09:28:23;11.20;99.90
48686;DHT22;34485;51.536;3.816;2023-12-28T09:30:49;11.20;99.90
48686;DHT22;34485;51.536;3.816;2023-12-28T09:33:15;11.30;99.90
48686;DHT22;34485;51.536;3.816;2023-12-28T09:35:42;11.30;99.90
48686;DHT22;34485;51.536;3.816;2023-12-28T09:38:08;11.20;99.90
48686;DHT22;34485;51.536;3.816;2023-12-28T09:40:35;11.30;99.90
48686;DHT22;34485;51.536;3.816;2023-12-28T09:43:25;11.30;99.90
48686;DHT22;34485;51.536;3.816;2023-12-28T09:45:52;11.30;99.90
48686;DHT22;34485;51.536;3.816;2023-12-28T09:48:21;11.30;99.90
48686;DHT22;34485;51.536;3.816;2023-12-28T09:50:50;11.20;99.90
48686;DHT22;34485;51.536;3.816;2023-12-28T09:53:16;11.20;99.90
48686;DHT22;34485;51.536;3.816;2023-12-28T09:55:43;11.30;99.90
48686;DHT22;34485;51.536;3.816;2023-12-28T09:58:10;11.30;99.90
48686;DHT22;34485;51.536;3.816;2023-12-28T10:00:38;11.30;99.90
48686;DHT22;34485;51.536;3.816;2023-12-28T10:03:04;11.40;99.90
48686;DHT22;34485;51.536;3.816;2023-12-28T10:05:30;11.50;99.90
48686;DHT22;34485;51.536;3.816;2023-12-28T10:07:56;11.50;99.90
48686;DHT22;34485;51.536;3.816;2023-12-28T10:10:22;11.50;99.90
48686;DHT22;34485;51.536;3.816;2023-12-28T10:12:48;11.50;99.90
48686;DHT22;34485;51.536;3.816;2023-12-28T10:15:14;11.40;99.90
48686;DHT22;34485;51.536;3.816;2023-12-28T10:17:40;11.40;99.90
48686;DHT22;34485;51.536;3.816;2023-12-28T10:20:06;11.40;99.90
48686;DHT22;34485;51.536;3.816;2023-12-28T10:22:36;11.40;99.90
48686;DHT22;34485;51.536;3.816;2023-12-28T10:27:31;11.30;99.90
48686;DHT22;34485;51.536;3.816;2023-12-28T10:29:57;11.30;99.90
48686;DHT22;34485;51.536;3.816;2023-12-28T10:32:23;11.30;99.90
48686;DHT22;34485;51.536;3.816;2023-12-28T10:34:51;11.20;99.90
48686;DHT22;34485;51.536;3.816;2023-12-28T10:37:20;11.30;99.90
48686;DHT22;34485;51.536;3.816;2023-12-28T10:39:49;11.30;99.90
48686;DHT22;34485;51.536;3.816;2023-12-28T10:42:46;11.30;99.90
48686;DHT22;34485;51.536;3.816;2023-12-28T10:45:14;11.30;99.90
48686;DHT22;34485;51.536;3.816;2023-12-28T10:47:51;11.30;99.90
48686;DHT22;34485;51.536;3.816;2023-12-28T10:50:19;11.30;99.90
48686;DHT22;34485;51.536;3.816;2023-12-28T10:52:45;11.30;99.90
48686;DHT22;34485;51.536;3.816;2023-12-28T10:56:00;11.30;99.90
48686;DHT22;34485;51.536;3.816;2023-12-28T10:58:39;11.30;99.90
48686;DHT22;34485;51.536;3.816;2023-12-28T11:01:08;11.40;99.90
48686;DHT22;34485;51.536;3.816;2023-12-28T11:03:37;11.40;99.90
48686;DHT22;34485;51.536;3.816;2023-12-28T11:06:07;11.50;99.90
48686;DHT22;34485;51.536;3.816;2023-12-28T11:08:34;11.50;99.90
48686;DHT22;34485;51.536;3.816;2023-12-28T11:11:01;11.60;99.90
48686;DHT22;34485;51.536;3.816;2023-12-28T11:13:32;11.60;99.90
48686;DHT22;34485;51.536;3.816;2023-12-28T11:15:58;11.60;99.90
48686;DHT22;34485;51.536;3.816;2023-12-28T11:18:25;11.60;99.90
48686;DHT22;34485;51.536;3.816;2023-12-28T11:20:53;11.70;99.90
48686;DHT22;34485;51.536;3.816;2023-12-28T11:23:19;11.70;99.90
48686;DHT22;34485;51.536;3.816;2023-12-28T11:25:45;11.70;99.90
48686;DHT22;34485;51.536;3.816;2023-12-28T11:28:12;11.80;99.90
48686;DHT22;34485;51.536;3.816;2023-12-28T11:30:38;11.80;99.90
48686;DHT22;34485;51.536;3.816;2023-12-28T11:33:07;11.80;99.90
48686;DHT22;34485;51.536;3.816;2023-12-28T11:35:39;11.70;99.90
48686;DHT22;34485;51.536;3.816;2023-12-28T11:38:08;11.70;99.90
48686;DHT22;34485;51.536;3.816;2023-12-28T11:40:42;11.70;99.90
48686;DHT22;34485;51.536;3.816;2023-12-28T11:43:19;11.60;99.90
48686;DHT22;34485;51.536;3.816;2023-12-28T11:45:54;11.60;99.90
48686;DHT22;34485;51.536;3.816;2023-12-28T11:48:27;11.60;99.90
48686;DHT22;34485;51.536;3.816;2023-12-28T11:51:00;11.50;99.90
48686;DHT22;34485;51.536;3.816;2023-12-28T11:55:59;11.50;99.90
48686;DHT22;34485;51.536;3.816;2023-12-28T11:58:29;11.50;99.90
48686;DHT22;34485;51.536;3.816;2023-12-28T12:00:54;11.50;99.90
48686;DHT22;34485;51.536;3.816;2023-12-28T12:03:20;11.50;99.90
48686;DHT22;34485;51.536;3.816;2023-12-28T12:05:46;11.50;99.90
48686;DHT22;34485;51.536;3.816;2023-12-28T12:08:11;11.50;99.90
48686;DHT22;34485;51.536;3.816;2023-12-28T12:10:40;11.50;99.90
48686;DHT22;34485;51.536;3.816;2023-12-28T12:13:07;11.50;99.90
48686;DHT22;34485;51.536;3.816;2023-12-28T12:15:33;11.50;99.90
48686;DHT22;34485;51.536;3.816;2023-12-28T12:18:00;11.50;99.90
48686;DHT22;34485;51.536;3.816;2023-12-28T12:20:26;11.50;99.90
48686;DHT22;34485;51.536;3.816;2023-12-28T12:22:59;11.50;99.90
48686;DHT22;34485;51.536;3.816;2023-12-28T12:25:26;11.60;99.90
48686;DHT22;34485;51.536;3.816;2023-12-28T12:27:52;11.60;99.90
48686;DHT22;34485;51.536;3.816;2023-12-28T12:30:19;11.60;99.90
48686;DHT22;34485;51.536;3.816;2023-12-28T12:32:45;11.70;99.90
48686;DHT22;34485;51.536;3.816;2023-12-28T12:35:11;11.80;99.90
48686;DHT22;34485;51.536;3.816;2023-12-28T12:37:37;11.80;99.90
48686;DHT22;34485;51.536;3.816;2023-12-28T12:40:04;11.90;99.90
48686;DHT22;34485;51.536;3.816;2023-12-28T12:42:32;11.90;99.90
48686;DHT22;34485;51.536;3.816;2023-12-28T12:44:58;11.90;99.90
48686;DHT22;34485;51.536;3.816;2023-12-28T12:47:24;11.80;99.90
48686;DHT22;34485;51.536;3.816;2023-12-28T12:49:51;11.80;99.90
48686;DHT22;34485;51.536;3.816;2023-12-28T12:52:19;11.70;99.90
48686;DHT22;34485;51.536;3.816;2023-12-28T12:54:53;11.70;99.90
48686;DHT22;34485;51.536;3.816;2023-12-28T12:57:19;11.70;99.90
48686;DHT22;34485;51.536;3.816;2023-12-28T12:59:45;11.60;99.90
48686;DHT22;34485;51.536;3.816;2023-12-28T13:02:10;11.60;99.90
48686;DHT22;34485;51.536;3.816;2023-12-28T13:04:38;11.50;99.90
48686;DHT22;34485;51.536;3.816;2023-12-28T13:07:04;11.50;99.90
48686;DHT22;34485;51.536;3.816;2023-12-28T13:09:30;11.50;99.90
48686;DHT22;34485;51.536;3.816;2023-12-28T13:11:56;11.50;99.90
48686;DHT22;34485;51.536;3.816;2023-12-28T13:14:22;11.40;99.90
48686;DHT22;34485;51.536;3.816;2023-12-28T13:16:48;11.40;99.90
48686;DHT22;34485;51.536;3.816;2023-12-28T13:21:43;11.50;99.90
48686;DHT22;34485;51.536;3.816;2023-12-28T13:24:09;11.50;99.90
48686;DHT22;34485;51.536;3.816;2023-12-28T13:26:35;11.50;99.90
48686;DHT22;34485;51.536;3.816;2023-12-28T13:29:00;11.50;99.90
48686;DHT22;34485;51.536;3.816;2023-12-28T13:31:26;11.60;99.90
48686;DHT22;34485;51.536;3.816;2023-12-28T13:33:52;11.60;99.90
48686;DHT22;34485;51.536;3.816;2023-12-28T13:36:17;11.70;99.90
48686;DHT22;34485;51.536;3.816;2023-12-28T13:38:44;11.70;99.90
48686;DHT22;34485;51.536;3.816;2023-12-28T13:41:09;11.70;99.90
48686;DHT22;34485;51.536;3.816;2023-12-28T13:43:35;11.70;99.90
48686;DHT22;34485;51.536;3.816;2023-12-28T13:46:01;11.70;99.90
48686;DHT22;34485;51.536;3.816;2023-12-28T13:48:30;11.70;99.90
48686;DHT22;34485;51.536;3.816;2023-12-28T13:50:55;11.70;99.90
48686;DHT22;34485;51.536;3.816;2023-12-28T13:53:21;11.70;99.90
48686;DHT22;34485;51.536;3.816;2023-12-28T13:55:47;11.70;99.90
48686;DHT22;34485;51.536;3.816;2023-12-28T13:58:12;11.70;99.90
48686;DHT22;34485;51.536;3.816;2023-12-28T14:00:39;11.80;99.90
48686;DHT22;34485;51.536;3.816;2023-12-28T14:03:05;11.80;99.90
48686;DHT22;34485;51.536;3.816;2023-12-28T14:05:31;11.80;99.90
48686;DHT22;34485;51.536;3.816;2023-12-28T14:07:57;11.80;99.90
48686;DHT22;34485;51.536;3.816;2023-12-28T14:10:23;11.80;99.90
48686;DHT22;34485;51.536;3.816;2023-12-28T14:12:48;11.80;99.90
48686;DHT22;34485;51.536;3.816;2023-12-28T14:15:14;11.70;99.90
48686;DHT22;34485;51.536;3.816;2023-12-28T14:17:43;11.70;99.90
48686;DHT22;34485;51.536;3.816;2023-12-28T14:22:38;11.70;99.90
48686;DHT22;34485;51.536;3.816;2023-12-28T14:25:04;11.70;99.90
48686;DHT22;34485;51.536;3.816;2023-12-28T14:27:30;11.60;99.90
48686;DHT22;34485;51.536;3.816;2023-12-28T14:29:57;11.60;99.90
48686;DHT22;34485;51.536;3.816;2023-12-28T14:32:23;11.60;99.90
48686;DHT22;34485;51.536;3.816;2023-12-28T14:34:49;11.60;99.90
48686;DHT22;34485;51.536;3.816;2023-12-28T14:37:14;11.60;99.90
48686;DHT22;34485;51.536;3.816;2023-12-28T14:39:40;11.60;99.90
48686;DHT22;34485;51.536;3.816;2023-12-28T14:42:06;11.50;99.90
48686;DHT22;34485;51.536;3.816;2023-12-28T14:44:32;11.50;99.90
48686;DHT22;34485;51.536;3.816;2023-12-28T14:46:58;11.50;99.90
48686;DHT22;34485;51.536;3.816;2023-12-28T14:49:24;11.50;99.90
48686;DHT22;34485;51.536;3.816;2023-12-28T14:51:49;11.50;99.90
48686;DHT22;34485;51.536;3.816;2023-12-28T14:54:15;11.50;99.90
48686;DHT22;34485;51.536;3.816;2023-12-28T14:56:41;11.50;99.90
48686;DHT22;34485;51.536;3.816;2023-12-28T14:59:07;11.50;99.90
48686;DHT22;34485;51.536;3.816;2023-12-28T15:01:33;11.50;99.90
48686;DHT22;34485;51.536;3.816;2023-12-28T15:03:58;11.40;99.90
48686;DHT22;34485;51.536;3.816;2023-12-28T15:06:24;11.40;99.90
48686;DHT22;34485;51.536;3.816;2023-12-28T15:08:50;11.30;99.90
48686;DHT22;34485;51.536;3.816;2023-12-28T15:11:16;11.30;99.90
48686;DHT22;34485;51.536;3.816;2023-12-28T15:13:42;11.20;99.90
48686;DHT22;34485;51.536;3.816;2023-12-28T15:16:08;11.20;99.90
48686;DHT22;34485;51.536;3.816;2023-12-28T15:18:35;11.10;99.90
48686;DHT22;34485;51.536;3.816;2023-12-28T15:21:01;11.10;99.90
48686;DHT22;34485;51.536;3.816;2023-12-28T15:23:27;11.10;99.90
48686;DHT22;34485;51.536;3.816;2023-12-28T15:25:53;11.10;99.90
48686;DHT22;34485;51.536;3.816;2023-12-28T15:28:19;11.10;99.90
48686;DHT22;34485;51.536;3.816;2023-12-28T15:30:46;11.10;99.90
48686;DHT22;34485;51.536;3.816;2023-12-28T15:33:11;11.10;99.90
48686;DHT22;34485;51.536;3.816;2023-12-28T15:35:37;11.00;99.90
48686;DHT22;34485;51.536;3.816;2023-12-28T15:38:04;11.00;99.90
48686;DHT22;34485;51.536;3.816;2023-12-28T15:40:29;11.00;99.90
48686;DHT22;34485;51.536;3.816;2023-12-28T15:42:55;11.00;99.90